Swiss, Missouri
Current Conditions -  °F | °C
As of 11:55 AM on Friday 31 Oct 2014 (Local Time) from KFYG Reporting Station
Clear Clear  
Wind Chill: 33°   Ceiling: Unl
Heat Index: 41°   Visibility: 10mi
Dew Point: 21°   Wind: 14mph
Humidity: 45%   Direction: 330°NNW
Pressure: 30.33"   Gusts: 25mph
Location:  38.5988°N, 91.4946°W
Report Text: KFYG 311655Z AUTO 33012G22KT 10SM CLR 05/M06 A3033 RMK AO2
Loading
Personal Weather Stations






























Interactive Weather Map
Tropical Storm Tracking
New forecast layout! Learn more

10-Day Weather Forecast

Advertisements
Track Severe Weather on mobile